sensor_id;sensor_type;location;lat;lon;timestamp;temperature;humidity
6964;DHT22;3522;50.856;7.278;2023-03-11T00:01:56;1.20;99.90
6964;DHT22;3522;50.856;7.278;2023-03-11T00:04:23;1.20;99.90
6964;DHT22;3522;50.856;7.278;2023-03-11T00:06:49;1.20;99.90
6964;DHT22;3522;50.856;7.278;2023-03-11T00:09:16;1.20;99.90
6964;DHT22;3522;50.856;7.278;2023-03-11T00:11:42;1.20;99.90
6964;DHT22;3522;50.856;7.278;2023-03-11T00:14:09;1.20;99.90
6964;DHT22;3522;50.856;7.278;2023-03-11T00:16:37;1.30;99.90
6964;DHT22;3522;50.856;7.278;2023-03-11T00:19:03;1.30;99.90
6964;DHT22;3522;50.856;7.278;2023-03-11T00:21:30;1.30;99.90
6964;DHT22;3522;50.856;7.278;2023-03-11T00:23:57;1.30;99.90
6964;DHT22;3522;50.856;7.278;2023-03-11T00:26:25;1.30;99.90
6964;DHT22;3522;50.856;7.278;2023-03-11T00:28:52;1.30;99.90
6964;DHT22;3522;50.856;7.278;2023-03-11T00:31:19;1.30;99.90
6964;DHT22;3522;50.856;7.278;2023-03-11T00:33:47;1.20;99.90
6964;DHT22;3522;50.856;7.278;2023-03-11T00:36:17;1.30;99.90
6964;DHT22;3522;50.856;7.278;2023-03-11T00:38:46;1.30;99.90
6964;DHT22;3522;50.856;7.278;2023-03-11T00:41:13;1.30;99.90
6964;DHT22;3522;50.856;7.278;2023-03-11T00:43:39;1.20;99.90
6964;DHT22;3522;50.856;7.278;2023-03-11T00:46:06;1.20;99.90
6964;DHT22;3522;50.856;7.278;2023-03-11T00:48:32;1.20;99.90
6964;DHT22;3522;50.856;7.278;2023-03-11T00:51:00;1.20;99.90
6964;DHT22;3522;50.856;7.278;2023-03-11T00:53:27;1.20;99.90
6964;DHT22;3522;50.856;7.278;2023-03-11T00:55:53;1.20;99.90
6964;DHT22;3522;50.856;7.278;2023-03-11T00:58:20;1.20;99.90
6964;DHT22;3522;50.856;7.278;2023-03-11T01:00:47;1.20;99.90
6964;DHT22;3522;50.856;7.278;2023-03-11T01:03:13;1.20;99.90
6964;DHT22;3522;50.856;7.278;2023-03-11T01:05:40;1.20;99.90
6964;DHT22;3522;50.856;7.278;2023-03-11T01:08:08;1.20;99.90
6964;DHT22;3522;50.856;7.278;2023-03-11T01:10:34;1.20;99.90
6964;DHT22;3522;50.856;7.278;2023-03-11T01:13:01;1.20;99.90
6964;DHT22;3522;50.856;7.278;2023-03-11T01:15:29;1.20;99.90
6964;DHT22;3522;50.856;7.278;2023-03-11T01:17:56;1.20;99.90
6964;DHT22;3522;50.856;7.278;2023-03-11T01:20:23;1.20;99.90
6964;DHT22;3522;50.856;7.278;2023-03-11T01:22:49;1.20;99.90
6964;DHT22;3522;50.856;7.278;2023-03-11T01:25:18;1.20;99.90
6964;DHT22;3522;50.856;7.278;2023-03-11T01:27:45;1.20;99.90
6964;DHT22;3522;50.856;7.278;2023-03-11T01:30:13;1.20;99.90
6964;DHT22;3522;50.856;7.278;2023-03-11T01:32:39;1.20;99.90
6964;DHT22;3522;50.856;7.278;2023-03-11T01:35:06;1.20;99.90
6964;DHT22;3522;50.856;7.278;2023-03-11T01:37:33;1.20;99.90
6964;DHT22;3522;50.856;7.278;2023-03-11T01:39:59;1.20;99.90
6964;DHT22;3522;50.856;7.278;2023-03-11T01:42:27;1.20;99.90
6964;DHT22;3522;50.856;7.278;2023-03-11T01:44:54;1.20;99.90
6964;DHT22;3522;50.856;7.278;2023-03-11T01:47:31;1.20;99.90
6964;DHT22;3522;50.856;7.278;2023-03-11T01:49:58;1.20;99.90
6964;DHT22;3522;50.856;7.278;2023-03-11T01:52:25;1.20;99.90
6964;DHT22;3522;50.856;7.278;2023-03-11T01:54:52;1.20;99.90
6964;DHT22;3522;50.856;7.278;2023-03-11T01:57:18;1.20;99.90
6964;DHT22;3522;50.856;7.278;2023-03-11T01:59:48;1.20;99.90
6964;DHT22;3522;50.856;7.278;2023-03-11T02:02:16;1.20;99.90
6964;DHT22;3522;50.856;7.278;2023-03-11T02:04:44;1.10;99.90
6964;DHT22;3522;50.856;7.278;2023-03-11T02:07:11;1.20;99.90
6964;DHT22;3522;50.856;7.278;2023-03-11T02:09:39;1.20;99.90
6964;DHT22;3522;50.856;7.278;2023-03-11T02:12:06;1.20;99.90
6964;DHT22;3522;50.856;7.278;2023-03-11T02:14:34;1.20;99.90
6964;DHT22;3522;50.856;7.278;2023-03-11T02:17:02;1.20;99.90
6964;DHT22;3522;50.856;7.278;2023-03-11T02:19:30;1.20;99.90
6964;DHT22;3522;50.856;7.278;2023-03-11T02:22:01;1.20;99.90
6964;DHT22;3522;50.856;7.278;2023-03-11T02:24:29;1.20;99.90
6964;DHT22;3522;50.856;7.278;2023-03-11T02:27:02;1.20;99.90
6964;DHT22;3522;50.856;7.278;2023-03-11T02:29:31;1.20;99.90
6964;DHT22;3522;50.856;7.278;2023-03-11T02:31:58;1.20;99.90
6964;DHT22;3522;50.856;7.278;2023-03-11T02:34:28;1.20;99.90
6964;DHT22;3522;50.856;7.278;2023-03-11T02:36:55;1.20;99.90
6964;DHT22;3522;50.856;7.278;2023-03-11T02:39:28;1.20;99.90
6964;DHT22;3522;50.856;7.278;2023-03-11T02:41:54;1.20;99.90
6964;DHT22;3522;50.856;7.278;2023-03-11T02:44:23;1.20;99.90
6964;DHT22;3522;50.856;7.278;2023-03-11T02:46:50;1.20;99.90
6964;DHT22;3522;50.856;7.278;2023-03-11T02:49:17;1.20;99.90
6964;DHT22;3522;50.856;7.278;2023-03-11T02:51:44;1.20;99.90
6964;DHT22;3522;50.856;7.278;2023-03-11T02:54:11;1.20;99.90
6964;DHT22;3522;50.856;7.278;2023-03-11T02:56:38;1.20;99.90
6964;DHT22;3522;50.856;7.278;2023-03-11T02:59:04;1.20;99.90
6964;DHT22;3522;50.856;7.278;2023-03-11T03:01:32;1.20;99.90
6964;DHT22;3522;50.856;7.278;2023-03-11T03:03:59;1.20;99.90
6964;DHT22;3522;50.856;7.278;2023-03-11T03:06:25;1.20;99.90
6964;DHT22;3522;50.856;7.278;2023-03-11T03:08:52;1.20;99.90
6964;DHT22;3522;50.856;7.278;2023-03-11T03:11:19;1.30;99.90
6964;DHT22;3522;50.856;7.278;2023-03-11T03:13:46;1.30;99.90
6964;DHT22;3522;50.856;7.278;2023-03-11T03:16:12;1.30;99.90
6964;DHT22;3522;50.856;7.278;2023-03-11T03:18:40;1.20;99.90
6964;DHT22;3522;50.856;7.278;2023-03-11T03:21:07;1.20;99.90
6964;DHT22;3522;50.856;7.278;2023-03-11T03:23:33;1.20;99.90
6964;DHT22;3522;50.856;7.278;2023-03-11T03:26:02;1.20;99.90
6964;DHT22;3522;50.856;7.278;2023-03-11T03:28:28;1.20;99.90
6964;DHT22;3522;50.856;7.278;2023-03-11T03:30:55;1.20;99.90
6964;DHT22;3522;50.856;7.278;2023-03-11T03:33:21;1.10;99.90
6964;DHT22;3522;50.856;7.278;2023-03-11T03:35:49;1.10;99.90
6964;DHT22;3522;50.856;7.278;2023-03-11T03:38:16;1.10;99.90
6964;DHT22;3522;50.856;7.278;2023-03-11T03:40:44;1.00;99.90
6964;DHT22;3522;50.856;7.278;2023-03-11T03:43:11;1.00;99.90
6964;DHT22;3522;50.856;7.278;2023-03-11T03:45:37;0.90;99.90
6964;DHT22;3522;50.856;7.278;2023-03-11T03:48:04;0.90;99.90
6964;DHT22;3522;50.856;7.278;2023-03-11T03:50:31;0.80;99.90
6964;DHT22;3522;50.856;7.278;2023-03-11T03:52:59;0.80;99.90
6964;DHT22;3522;50.856;7.278;2023-03-11T03:55:25;0.80;99.90
6964;DHT22;3522;50.856;7.278;2023-03-11T03:57:52;0.70;99.90
6964;DHT22;3522;50.856;7.278;2023-03-11T04:00:19;0.60;99.90
6964;DHT22;3522;50.856;7.278;2023-03-11T04:02:45;0.60;99.90
6964;DHT22;3522;50.856;7.278;2023-03-11T04:05:12;0.50;99.90
6964;DHT22;3522;50.856;7.278;2023-03-11T04:07:38;0.60;99.90
6964;DHT22;3522;50.856;7.278;2023-03-11T04:10:07;0.50;99.90
6964;DHT22;3522;50.856;7.278;2023-03-11T04:12:34;0.50;99.90
6964;DHT22;3522;50.856;7.278;2023-03-11T04:15:00;0.40;99.90
6964;DHT22;3522;50.856;7.278;2023-03-11T04:17:27;0.40;99.90
6964;DHT22;3522;50.856;7.278;2023-03-11T04:19:53;0.40;99.90
6964;DHT22;3522;50.856;7.278;2023-03-11T04:22:20;0.30;99.90
6964;DHT22;3522;50.856;7.278;2023-03-11T04:24:47;0.30;99.90
6964;DHT22;3522;50.856;7.278;2023-03-11T04:27:14;0.30;99.90
6964;DHT22;3522;50.856;7.278;2023-03-11T04:29:41;0.20;99.90
6964;DHT22;3522;50.856;7.278;2023-03-11T04:32:07;0.20;99.90
6964;DHT22;3522;50.856;7.278;2023-03-11T04:34:34;0.20;99.90
6964;DHT22;3522;50.856;7.278;2023-03-11T04:37:01;0.20;99.90
6964;DHT22;3522;50.856;7.278;2023-03-11T04:39:27;0.10;99.90
6964;DHT22;3522;50.856;7.278;2023-03-11T04:41:54;0.10;99.90
6964;DHT22;3522;50.856;7.278;2023-03-11T04:44:22;0.10;99.90
6964;DHT22;3522;50.856;7.278;2023-03-11T04:46:48;0.10;99.90
6964;DHT22;3522;50.856;7.278;2023-03-11T04:49:15;0.00;99.90
6964;DHT22;3522;50.856;7.278;2023-03-11T04:51:41;0.00;99.90
6964;DHT22;3522;50.856;7.278;2023-03-11T04:54:08;-0.10;99.90
6964;DHT22;3522;50.856;7.278;2023-03-11T04:56:34;-0.10;99.90
6964;DHT22;3522;50.856;7.278;2023-03-11T04:59:01;-0.10;99.90
6964;DHT22;3522;50.856;7.278;2023-03-11T05:01:29;-0.20;99.90
6964;DHT22;3522;50.856;7.278;2023-03-11T05:03:55;-0.20;99.90
6964;DHT22;3522;50.856;7.278;2023-03-11T05:06:22;-0.20;99.90
6964;DHT22;3522;50.856;7.278;2023-03-11T05:08:49;-0.20;99.90
6964;DHT22;3522;50.856;7.278;2023-03-11T05:11:15;-0.40;99.90
6964;DHT22;3522;50.856;7.278;2023-03-11T05:13:42;-0.40;99.90
6964;DHT22;3522;50.856;7.278;2023-03-11T05:16:08;-0.40;99.90
6964;DHT22;3522;50.856;7.278;2023-03-11T05:18:36;-0.50;99.90
6964;DHT22;3522;50.856;7.278;2023-03-11T05:21:03;-0.50;99.90
6964;DHT22;3522;50.856;7.278;2023-03-11T05:23:29;-0.50;99.90
6964;DHT22;3522;50.856;7.278;2023-03-11T05:25:56;-0.50;99.90
6964;DHT22;3522;50.856;7.278;2023-03-11T05:28:23;-0.60;99.90
6964;DHT22;3522;50.856;7.278;2023-03-11T05:30:49;-0.60;99.90
6964;DHT22;3522;50.856;7.278;2023-03-11T05:33:16;-0.60;99.90
6964;DHT22;3522;50.856;7.278;2023-03-11T05:35:44;-0.60;99.90
6964;DHT22;3522;50.856;7.278;2023-03-11T05:38:10;-0.60;99.90
6964;DHT22;3522;50.856;7.278;2023-03-11T05:40:37;-0.60;99.90
6964;DHT22;3522;50.856;7.278;2023-03-11T05:43:03;-0.50;99.90
6964;DHT22;3522;50.856;7.278;2023-03-11T05:45:30;-0.50;99.90
6964;DHT22;3522;50.856;7.278;2023-03-11T05:47:56;-0.50;99.90
6964;DHT22;3522;50.856;7.278;2023-03-11T05:50:23;-0.50;99.90
6964;DHT22;3522;50.856;7.278;2023-03-11T05:52:51;-0.50;99.90
6964;DHT22;3522;50.856;7.278;2023-03-11T05:55:18;-0.40;99.90
6964;DHT22;3522;50.856;7.278;2023-03-11T05:57:44;-0.50;99.90
6964;DHT22;3522;50.856;7.278;2023-03-11T06:00:11;-0.50;99.90
6964;DHT22;3522;50.856;7.278;2023-03-11T06:02:40;-0.50;99.90
6964;DHT22;3522;50.856;7.278;2023-03-11T06:05:07;-0.50;99.90
6964;DHT22;3522;50.856;7.278;2023-03-11T06:07:33;-0.60;99.90
6964;DHT22;3522;50.856;7.278;2023-03-11T06:10:02;-0.60;99.90
6964;DHT22;3522;50.856;7.278;2023-03-11T06:12:29;-0.60;99.90
6964;DHT22;3522;50.856;7.278;2023-03-11T06:14:55;-0.60;99.90
6964;DHT22;3522;50.856;7.278;2023-03-11T06:17:22;-0.50;99.90
6964;DHT22;3522;50.856;7.278;2023-03-11T06:19:48;-0.50;99.90
6964;DHT22;3522;50.856;7.278;2023-03-11T06:22:15;-0.60;99.90
6964;DHT22;3522;50.856;7.278;2023-03-11T06:24:42;-0.60;99.90
6964;DHT22;3522;50.856;7.278;2023-03-11T06:27:10;-0.60;99.90
6964;DHT22;3522;50.856;7.278;2023-03-11T06:29:36;-0.50;99.90
6964;DHT22;3522;50.856;7.278;2023-03-11T06:32:03;-0.50;99.90
6964;DHT22;3522;50.856;7.278;2023-03-11T06:34:30;-0.50;99.90
6964;DHT22;3522;50.856;7.278;2023-03-11T06:36:56;-0.50;99.90
6964;DHT22;3522;50.856;7.278;2023-03-11T06:39:25;-0.50;99.90
6964;DHT22;3522;50.856;7.278;2023-03-11T06:41:51;-0.50;99.90
6964;DHT22;3522;50.856;7.278;2023-03-11T06:44:19;-0.40;99.90
6964;DHT22;3522;50.856;7.278;2023-03-11T06:46:46;-0.40;99.90
6964;DHT22;3522;50.856;7.278;2023-03-11T06:49:12;-0.40;99.90
6964;DHT22;3522;50.856;7.278;2023-03-11T06:51:39;-0.30;99.90
6964;DHT22;3522;50.856;7.278;2023-03-11T06:54:08;-0.30;99.90
6964;DHT22;3522;50.856;7.278;2023-03-11T06:56:35;-0.30;99.90
6964;DHT22;3522;50.856;7.278;2023-03-11T06:59:01;-0.20;99.90
6964;DHT22;3522;50.856;7.278;2023-03-11T07:01:29;-0.20;99.90
6964;DHT22;3522;50.856;7.278;2023-03-11T07:03:56;0.00;99.90
6964;DHT22;3522;50.856;7.278;2023-03-11T07:06:23;0.00;99.90
6964;DHT22;3522;50.856;7.278;2023-03-11T07:08:50;0.10;99.90
6964;DHT22;3522;50.856;7.278;2023-03-11T07:11:18;0.20;99.90
6964;DHT22;3522;50.856;7.278;2023-03-11T07:13:44;0.30;99.90
6964;DHT22;3522;50.856;7.278;2023-03-11T07:16:12;0.30;99.90
6964;DHT22;3522;50.856;7.278;2023-03-11T07:18:41;0.40;99.90
6964;DHT22;3522;50.856;7.278;2023-03-11T07:21:07;0.40;99.90
6964;DHT22;3522;50.856;7.278;2023-03-11T07:23:34;0.40;99.90
6964;DHT22;3522;50.856;7.278;2023-03-11T07:26:01;0.50;99.90
6964;DHT22;3522;50.856;7.278;2023-03-11T07:28:29;0.50;99.90
6964;DHT22;3522;50.856;7.278;2023-03-11T07:30:55;0.60;99.90
6964;DHT22;3522;50.856;7.278;2023-03-11T07:33:22;0.70;99.90
6964;DHT22;3522;50.856;7.278;2023-03-11T07:35:50;0.70;99.90
6964;DHT22;3522;50.856;7.278;2023-03-11T07:38:17;0.70;99.90
6964;DHT22;3522;50.856;7.278;2023-03-11T07:40:44;0.80;99.90
6964;DHT22;3522;50.856;7.278;2023-03-11T07:43:10;0.80;99.90
6964;DHT22;3522;50.856;7.278;2023-03-11T07:45:37;1.00;99.90
6964;DHT22;3522;50.856;7.278;2023-03-11T07:48:04;1.10;99.90
6964;DHT22;3522;50.856;7.278;2023-03-11T07:50:30;1.20;99.90
6964;DHT22;3522;50.856;7.278;2023-03-11T07:52:58;1.30;99.90
6964;DHT22;3522;50.856;7.278;2023-03-11T07:55:25;1.30;99.90
6964;DHT22;3522;50.856;7.278;2023-03-11T07:57:51;1.40;99.90
6964;DHT22;3522;50.856;7.278;2023-03-11T08:00:18;1.50;99.90
6964;DHT22;3522;50.856;7.278;2023-03-11T08:02:45;1.60;99.90
6964;DHT22;3522;50.856;7.278;2023-03-11T08:05:11;1.60;99.90
6964;DHT22;3522;50.856;7.278;2023-03-11T08:07:38;1.80;99.90
6964;DHT22;3522;50.856;7.278;2023-03-11T08:10:06;1.90;99.90
6964;DHT22;3522;50.856;7.278;2023-03-11T08:12:33;2.00;99.90
6964;DHT22;3522;50.856;7.278;2023-03-11T08:14:59;2.10;99.90
6964;DHT22;3522;50.856;7.278;2023-03-11T08:17:26;2.20;99.90
6964;DHT22;3522;50.856;7.278;2023-03-11T08:19:53;2.40;99.90
6964;DHT22;3522;50.856;7.278;2023-03-11T08:22:19;2.40;99.90
6964;DHT22;3522;50.856;7.278;2023-03-11T08:24:49;2.50;99.90
6964;DHT22;3522;50.856;7.278;2023-03-11T08:27:17;2.50;99.90
6964;DHT22;3522;50.856;7.278;2023-03-11T08:29:43;2.70;99.90
6964;DHT22;3522;50.856;7.278;2023-03-11T08:32:10;2.90;99.90
6964;DHT22;3522;50.856;7.278;2023-03-11T08:34:36;3.10;99.90
6964;DHT22;3522;50.856;7.278;2023-03-11T08:37:03;3.30;99.90
6964;DHT22;3522;50.856;7.278;2023-03-11T08:39:30;3.50;99.90
6964;DHT22;3522;50.856;7.278;2023-03-11T08:41:57;3.60;99.90
6964;DHT22;3522;50.856;7.278;2023-03-11T08:44:25;3.70;99.90
6964;DHT22;3522;50.856;7.278;2023-03-11T08:46:52;3.90;99.90
6964;DHT22;3522;50.856;7.278;2023-03-11T08:49:18;4.10;99.90
6964;DHT22;3522;50.856;7.278;2023-03-11T08:51:45;4.20;99.90
6964;DHT22;3522;50.856;7.278;2023-03-11T08:54:11;4.10;99.90
6964;DHT22;3522;50.856;7.278;2023-03-11T08:56:38;4.20;99.90
6964;DHT22;3522;50.856;7.278;2023-03-11T08:59:04;4.30;99.90
6964;DHT22;3522;50.856;7.278;2023-03-11T09:01:34;4.40;99.90
6964;DHT22;3522;50.856;7.278;2023-03-11T09:04:00;4.60;99.90
6964;DHT22;3522;50.856;7.278;2023-03-11T09:06:27;4.60;99.90
6964;DHT22;3522;50.856;7.278;2023-03-11T09:08:54;4.60;99.90
6964;DHT22;3522;50.856;7.278;2023-03-11T09:11:21;4.40;99.90
6964;DHT22;3522;50.856;7.278;2023-03-11T09:13:48;4.50;99.90
6964;DHT22;3522;50.856;7.278;2023-03-11T09:16:15;4.20;99.90
6964;DHT22;3522;50.856;7.278;2023-03-11T09:18:44;4.10;99.90
6964;DHT22;3522;50.856;7.278;2023-03-11T09:21:11;4.20;99.90
6964;DHT22;3522;50.856;7.278;2023-03-11T09:23:38;4.50;99.90
6964;DHT22;3522;50.856;7.278;2023-03-11T09:26:05;4.70;99.90
6964;DHT22;3522;50.856;7.278;2023-03-11T09:28:31;5.00;99.90
6964;DHT22;3522;50.856;7.278;2023-03-11T09:30:58;5.20;99.90
6964;DHT22;3522;50.856;7.278;2023-03-11T09:33:24;5.00;99.90
6964;DHT22;3522;50.856;7.278;2023-03-11T09:35:52;4.60;99.90
6964;DHT22;3522;50.856;7.278;2023-03-11T09:38:19;4.40;99.90
6964;DHT22;3522;50.856;7.278;2023-03-11T09:40:48;4.10;99.90
6964;DHT22;3522;50.856;7.278;2023-03-11T09:43:19;4.10;99.90
6964;DHT22;3522;50.856;7.278;2023-03-11T09:45:50;4.20;99.90
6964;DHT22;3522;50.856;7.278;2023-03-11T09:48:19;4.10;99.90
6964;DHT22;3522;50.856;7.278;2023-03-11T09:50:49;4.10;99.90
6964;DHT22;3522;50.856;7.278;2023-03-11T09:53:20;4.20;99.90
6964;DHT22;3522;50.856;7.278;2023-03-11T09:55:48;4.10;99.90
6964;DHT22;3522;50.856;7.278;2023-03-11T09:58:17;4.30;99.90
6964;DHT22;3522;50.856;7.278;2023-03-11T10:00:46;4.40;99.90
6964;DHT22;3522;50.856;7.278;2023-03-11T10:03:16;4.40;99.90
6964;DHT22;3522;50.856;7.278;2023-03-11T10:05:47;4.30;99.90
6964;DHT22;3522;50.856;7.278;2023-03-11T10:08:15;4.20;99.90
6964;DHT22;3522;50.856;7.278;2023-03-11T10:10:47;4.10;99.90
6964;DHT22;3522;50.856;7.278;2023-03-11T10:13:17;4.00;99.90
6964;DHT22;3522;50.856;7.278;2023-03-11T10:15:51;3.90;99.90
6964;DHT22;3522;50.856;7.278;2023-03-11T10:18:33;3.90;99.90
6964;DHT22;3522;50.856;7.278;2023-03-11T10:21:02;3.90;99.90
6964;DHT22;3522;50.856;7.278;2023-03-11T10:23:36;3.90;99.90
6964;DHT22;3522;50.856;7.278;2023-03-11T10:26:09;4.00;99.90
6964;DHT22;3522;50.856;7.278;2023-03-11T10:28:38;4.20;99.90
6964;DHT22;3522;50.856;7.278;2023-03-11T10:31:12;4.60;99.90
6964;DHT22;3522;50.856;7.278;2023-03-11T10:33:43;5.00;99.90
6964;DHT22;3522;50.856;7.278;2023-03-11T10:36:12;5.50;99.90
6964;DHT22;3522;50.856;7.278;2023-03-11T10:38:43;5.90;99.90
6964;DHT22;3522;50.856;7.278;2023-03-11T10:41:13;6.10;99.90
6964;DHT22;3522;50.856;7.278;2023-03-11T10:43:44;6.10;99.90
6964;DHT22;3522;50.856;7.278;2023-03-11T10:46:12;6.10;99.90
6964;DHT22;3522;50.856;7.278;2023-03-11T10:48:41;6.00;99.90
6964;DHT22;3522;50.856;7.278;2023-03-11T10:51:11;5.70;99.90
6964;DHT22;3522;50.856;7.278;2023-03-11T10:53:42;5.40;99.90
6964;DHT22;3522;50.856;7.278;2023-03-11T10:56:09;5.30;99.90
6964;DHT22;3522;50.856;7.278;2023-03-11T10:58:50;5.20;99.90
6964;DHT22;3522;50.856;7.278;2023-03-11T11:01:17;5.30;99.90
6964;DHT22;3522;50.856;7.278;2023-03-11T11:03:47;5.30;99.90
6964;DHT22;3522;50.856;7.278;2023-03-11T11:06:18;5.50;99.90
6964;DHT22;3522;50.856;7.278;2023-03-11T11:08:46;5.60;99.90
6964;DHT22;3522;50.856;7.278;2023-03-11T11:11:19;5.90;99.90
6964;DHT22;3522;50.856;7.278;2023-03-11T11:13:55;6.10;99.90
6964;DHT22;3522;50.856;7.278;2023-03-11T11:16:22;6.50;99.90
6964;DHT22;3522;50.856;7.278;2023-03-11T11:18:49;6.80;99.90
6964;DHT22;3522;50.856;7.278;2023-03-11T11:21:27;7.00;99.90
6964;DHT22;3522;50.856;7.278;2023-03-11T11:24:00;7.10;99.90
6964;DHT22;3522;50.856;7.278;2023-03-11T11:26:28;6.90;99.90
6964;DHT22;3522;50.856;7.278;2023-03-11T11:29:05;6.70;99.90
6964;DHT22;3522;50.856;7.278;2023-03-11T11:31:32;6.40;99.90
6964;DHT22;3522;50.856;7.278;2023-03-11T11:33:59;6.00;99.90
6964;DHT22;3522;50.856;7.278;2023-03-11T11:36:26;5.90;99.90
6964;DHT22;3522;50.856;7.278;2023-03-11T11:38:54;5.90;99.90
6964;DHT22;3522;50.856;7.278;2023-03-11T11:41:21;6.00;99.90
6964;DHT22;3522;50.856;7.278;2023-03-11T11:43:49;5.90;99.40
6964;DHT22;3522;50.856;7.278;2023-03-11T11:46:19;6.20;99.90
6964;DHT22;3522;50.856;7.278;2023-03-11T11:48:49;6.30;99.90
6964;DHT22;3522;50.856;7.278;2023-03-11T11:51:19;6.30;99.90
6964;DHT22;3522;50.856;7.278;2023-03-11T11:53:48;6.20;98.50
6964;DHT22;3522;50.856;7.278;2023-03-11T11:56:16;6.50;99.90
6964;DHT22;3522;50.856;7.278;2023-03-11T11:58:43;6.50;99.90
6964;DHT22;3522;50.856;7.278;2023-03-11T12:01:13;6.30;99.90
6964;DHT22;3522;50.856;7.278;2023-03-11T12:03:56;6.20;99.90
6964;DHT22;3522;50.856;7.278;2023-03-11T12:06:26;6.00;99.90
6964;DHT22;3522;50.856;7.278;2023-03-11T12:08:58;6.00;99.90
6964;DHT22;3522;50.856;7.278;2023-03-11T12:11:27;5.90;99.90
6964;DHT22;3522;50.856;7.278;2023-03-11T12:13:57;6.10;99.90
6964;DHT22;3522;50.856;7.278;2023-03-11T12:16:30;6.30;99.90
6964;DHT22;3522;50.856;7.278;2023-03-11T12:19:03;6.40;99.90
6964;DHT22;3522;50.856;7.278;2023-03-11T12:21:41;6.50;99.70
6964;DHT22;3522;50.856;7.278;2023-03-11T12:24:13;6.70;99.90
6964;DHT22;3522;50.856;7.278;2023-03-11T12:26:42;6.60;99.90
6964;DHT22;3522;50.856;7.278;2023-03-11T12:29:11;6.40;99.90
6964;DHT22;3522;50.856;7.278;2023-03-11T12:31:39;6.40;99.90
6964;DHT22;3522;50.856;7.278;2023-03-11T12:34:08;6.30;99.90
6964;DHT22;3522;50.856;7.278;2023-03-11T12:36:37;6.20;98.50
6964;DHT22;3522;50.856;7.278;2023-03-11T12:39:04;6.50;99.90
6964;DHT22;3522;50.856;7.278;2023-03-11T12:41:33;6.50;99.90
6964;DHT22;3522;50.856;7.278;2023-03-11T12:44:10;6.60;99.90
6964;DHT22;3522;50.856;7.278;2023-03-11T12:47:02;6.70;99.80
6964;DHT22;3522;50.856;7.278;2023-03-11T12:49:31;6.70;98.40
6964;DHT22;3522;50.856;7.278;2023-03-11T12:52:02;6.50;98.60
6964;DHT22;3522;50.856;7.278;2023-03-11T12:54:30;6.20;99.90
6964;DHT22;3522;50.856;7.278;2023-03-11T12:56:57;6.00;99.90
6964;DHT22;3522;50.856;7.278;2023-03-11T12:59:34;5.90;99.90
6964;DHT22;3522;50.856;7.278;2023-03-11T13:02:11;5.80;99.90
6964;DHT22;3522;50.856;7.278;2023-03-11T13:04:49;5.80;99.90
6964;DHT22;3522;50.856;7.278;2023-03-11T13:07:27;5.90;99.90
6964;DHT22;3522;50.856;7.278;2023-03-11T13:12:46;5.80;99.90
6964;DHT22;3522;50.856;7.278;2023-03-11T13:17:56;5.90;99.90
6964;DHT22;3522;50.856;7.278;2023-03-11T13:20:43;5.60;99.90
6964;DHT22;3522;50.856;7.278;2023-03-11T13:23:22;5.60;99.90
6964;DHT22;3522;50.856;7.278;2023-03-11T13:26:01;5.50;99.90
6964;DHT22;3522;50.856;7.278;2023-03-11T13:28:33;5.60;99.90
6964;DHT22;3522;50.856;7.278;2023-03-11T13:31:05;5.50;99.90
6964;DHT22;3522;50.856;7.278;2023-03-11T13:33:39;5.50;99.90
6964;DHT22;3522;50.856;7.278;2023-03-11T13:36:11;5.40;99.90
6964;DHT22;3522;50.856;7.278;2023-03-11T13:38:49;5.60;99.90
6964;DHT22;3522;50.856;7.278;2023-03-11T13:41:21;5.40;99.90
6964;DHT22;3522;50.856;7.278;2023-03-11T13:43:49;5.40;99.90
6964;DHT22;3522;50.856;7.278;2023-03-11T13:46:19;5.30;99.90
6964;DHT22;3522;50.856;7.278;2023-03-11T13:48:49;5.20;99.90
6964;DHT22;3522;50.856;7.278;2023-03-11T13:51:21;5.20;99.90
6964;DHT22;3522;50.856;7.278;2023-03-11T13:53:50;5.10;99.90
6964;DHT22;3522;50.856;7.278;2023-03-11T13:56:21;5.30;99.90
6964;DHT22;3522;50.856;7.278;2023-03-11T13:58:48;5.30;99.90
6964;DHT22;3522;50.856;7.278;2023-03-11T14:01:15;5.40;99.90
6964;DHT22;3522;50.856;7.278;2023-03-11T14:03:43;5.40;99.90
6964;DHT22;3522;50.856;7.278;2023-03-11T14:06:11;5.60;99.90
6964;DHT22;3522;50.856;7.278;2023-03-11T14:08:40;5.70;99.90
6964;DHT22;3522;50.856;7.278;2023-03-11T14:11:14;5.80;99.90
6964;DHT22;3522;50.856;7.278;2023-03-11T14:13:42;5.80;99.90
6964;DHT22;3522;50.856;7.278;2023-03-11T14:16:12;5.90;99.90
6964;DHT22;3522;50.856;7.278;2023-03-11T14:18:41;6.10;99.90
6964;DHT22;3522;50.856;7.278;2023-03-11T14:21:11;6.30;99.90
6964;DHT22;3522;50.856;7.278;2023-03-11T14:23:40;6.20;99.90
6964;DHT22;3522;50.856;7.278;2023-03-11T14:26:07;5.90;99.10
6964;DHT22;3522;50.856;7.278;2023-03-11T14:28:35;5.80;99.20
6964;DHT22;3522;50.856;7.278;2023-03-11T14:31:03;5.80;99.60
6964;DHT22;3522;50.856;7.278;2023-03-11T14:33:29;5.90;99.30
6964;DHT22;3522;50.856;7.278;2023-03-11T14:35:57;5.90;99.50
6964;DHT22;3522;50.856;7.278;2023-03-11T14:38:24;6.20;99.90
6964;DHT22;3522;50.856;7.278;2023-03-11T14:40:53;6.30;99.90
6964;DHT22;3522;50.856;7.278;2023-03-11T14:43:20;6.30;99.90
6964;DHT22;3522;50.856;7.278;2023-03-11T14:45:47;6.30;99.90
6964;DHT22;3522;50.856;7.278;2023-03-11T14:48:15;6.10;99.90
6964;DHT22;3522;50.856;7.278;2023-03-11T14:50:44;6.00;99.90
6964;DHT22;3522;50.856;7.278;2023-03-11T14:53:14;6.00;99.90
6964;DHT22;3522;50.856;7.278;2023-03-11T14:55:42;6.00;99.90
6964;DHT22;3522;50.856;7.278;2023-03-11T14:58:12;5.90;99.70
6964;DHT22;3522;50.856;7.278;2023-03-11T15:00:44;6.00;99.90
6964;DHT22;3522;50.856;7.278;2023-03-11T15:03:13;6.00;99.90
6964;DHT22;3522;50.856;7.278;2023-03-11T15:05:44;6.00;99.90
6964;DHT22;3522;50.856;7.278;2023-03-11T15:08:12;5.90;99.00
6964;DHT22;3522;50.856;7.278;2023-03-11T15:13:24;5.90;99.70
6964;DHT22;3522;50.856;7.278;2023-03-11T15:15:54;5.90;99.50
6964;DHT22;3522;50.856;7.278;2023-03-11T15:18:21;5.60;95.90
6964;DHT22;3522;50.856;7.278;2023-03-11T15:20:59;5.70;98.90
6964;DHT22;3522;50.856;7.278;2023-03-11T15:23:26;5.70;99.90
6964;DHT22;3522;50.856;7.278;2023-03-11T15:25:53;5.80;98.00
6964;DHT22;3522;50.856;7.278;2023-03-11T15:28:20;5.80;97.80
6964;DHT22;3522;50.856;7.278;2023-03-11T15:30:49;5.80;99.90
6964;DHT22;3522;50.856;7.278;2023-03-11T15:33:20;5.70;99.90
6964;DHT22;3522;50.856;7.278;2023-03-11T15:35:47;5.70;99.60
6964;DHT22;3522;50.856;7.278;2023-03-11T15:38:17;5.60;99.90
6964;DHT22;3522;50.856;7.278;2023-03-11T15:40:49;5.60;99.90
6964;DHT22;3522;50.856;7.278;2023-03-11T15:43:20;5.60;99.60
6964;DHT22;3522;50.856;7.278;2023-03-11T15:45:49;5.30;97.80
6964;DHT22;3522;50.856;7.278;2023-03-11T15:48:17;5.20;98.30
6964;DHT22;3522;50.856;7.278;2023-03-11T15:50:45;5.20;99.90
6964;DHT22;3522;50.856;7.278;2023-03-11T15:53:12;5.30;99.90
6964;DHT22;3522;50.856;7.278;2023-03-11T15:55:38;5.30;99.90
6964;DHT22;3522;50.856;7.278;2023-03-11T15:58:06;5.30;99.90
6964;DHT22;3522;50.856;7.278;2023-03-11T16:00:33;5.40;99.90
6964;DHT22;3522;50.856;7.278;2023-03-11T16:03:01;5.40;99.90
6964;DHT22;3522;50.856;7.278;2023-03-11T16:05:28;5.30;99.00
6964;DHT22;3522;50.856;7.278;2023-03-11T16:07:54;5.30;99.40
6964;DHT22;3522;50.856;7.278;2023-03-11T16:10:22;5.20;99.90
6964;DHT22;3522;50.856;7.278;2023-03-11T16:12:50;5.10;98.80
6964;DHT22;3522;50.856;7.278;2023-03-11T16:15:20;5.10;98.20
6964;DHT22;3522;50.856;7.278;2023-03-11T16:17:49;5.10;98.50
6964;DHT22;3522;50.856;7.278;2023-03-11T16:20:17;5.20;98.90
6964;DHT22;3522;50.856;7.278;2023-03-11T16:22:44;5.30;99.60
6964;DHT22;3522;50.856;7.278;2023-03-11T16:25:13;5.30;99.80
6964;DHT22;3522;50.856;7.278;2023-03-11T16:27:43;5.30;99.90
6964;DHT22;3522;50.856;7.278;2023-03-11T16:30:10;5.20;99.50